Time;durP1;ratioP1;P1;durP2;ratioP2;P2;SDS_P1;SDS_P2;PMS_P1;PMS_P2;Temp;Humidity;BMP_temperature;BMP_pressure;BME280_temperature;BME280_humidity;BME280_pressure;Samples;Min_cycle;Max_cycle;Signal;HPM_P1;HPM_P2
2021/11/27 00:00:26;;;;;;;13.40;8.48;;;;;;;6.62;73.96;97682.77;1738260;81;21142;-39
2021/11/27 00:02:58;;;;;;;14.15;9.70;;;;;;;6.64;74.17;97689.10;1743439;81;21071;-39
2021/11/27 00:05:26;;;;;;;12.40;9.60;;;;;;;6.64;74.33;97670.25;1742300;81;21033;-39
2021/11/27 00:07:53;;;;;;;12.55;8.70;;;;;;;6.60;74.62;97654.08;1741273;81;21034;-39
2021/11/27 00:10:25;;;;;;;10.88;8.65;;;;;;;6.59;74.80;97638.29;1726294;81;21019;-39
2021/11/27 00:12:53;;;;;;;12.07;8.40;;;;;;;6.62;74.80;97641.59;1733646;81;21248;-39
2021/11/27 00:15:21;;;;;;;14.68;8.60;;;;;;;6.63;74.97;97639.11;1747790;81;20957;-39
2021/11/27 00:17:48;;;;;;;13.62;9.48;;;;;;;6.59;75.23;97645.02;1754740;81;21495;-39
2021/11/27 00:20:20;;;;;;;11.33;8.08;;;;;;;6.58;75.36;97634.08;1749558;81;21578;-39
2021/11/27 00:22:48;;;;;;;10.55;8.43;;;;;;;6.57;75.47;97627.14;1753660;81;21095;-39
2021/11/27 00:25:15;;;;;;;10.20;8.75;;;;;;;6.63;75.45;97618.92;1755588;81;21094;-39
2021/11/27 00:27:43;;;;;;;13.40;9.60;;;;;;;6.63;75.45;97605.45;1742561;81;20984;-39
2021/11/27 00:30:14;;;;;;;11.45;8.03;;;;;;;6.62;75.66;97607.94;1748990;81;21005;-39
2021/11/27 00:32:41;;;;;;;13.95;9.48;;;;;;;6.64;75.72;97596.20;1755742;81;21067;-39
2021/11/27 00:35:08;;;;;;;11.78;9.15;;;;;;;6.66;75.57;97588.54;1753197;81;21012;-39
2021/11/27 00:37:38;;;;;;;14.15;10.38;;;;;;;6.68;75.68;97591.64;1733447;81;21084;-39
2021/11/27 00:40:09;;;;;;;14.28;9.23;;;;;;;6.64;75.70;97576.02;1736475;81;21550;-39
2021/11/27 00:42:37;;;;;;;12.25;9.15;;;;;;;6.58;75.73;97574.27;1737008;81;21020;-39
2021/11/27 00:45:10;;;;;;;11.43;9.85;;;;;;;6.54;75.81;97572.89;1747192;81;20992;-39
2021/11/27 00:47:34;;;;;;;13.68;9.90;;;;;;;6.50;75.92;97558.64;1747939;81;21046;-39
2021/11/27 00:50:02;;;;;;;9.65;7.87;;;;;;;6.44;76.12;97548.02;1753915;81;21957;-39
2021/11/27 00:52:31;;;;;;;11.25;9.40;;;;;;;6.43;76.20;97539.77;1754599;81;21593;-39
2021/11/27 00:54:58;;;;;;;11.25;9.23;;;;;;;6.46;76.17;97540.92;1753720;81;20933;-39
2021/11/27 00:57:25;;;;;;;12.45;8.30;;;;;;;6.43;76.28;97531.70;1755517;81;21531;-39
2021/11/27 00:59:53;;;;;;;9.73;7.83;;;;;;;6.41;76.40;97525.91;1738519;81;21114;-39
2021/11/27 01:02:20;;;;;;;11.22;8.73;;;;;;;6.43;76.37;97520.93;1749750;81;21732;-39
2021/11/27 01:04:49;;;;;;;10.70;8.83;;;;;;;6.43;76.47;97516.89;1753857;81;21032;-39
2021/11/27 01:07:16;;;;;;;11.63;8.45;;;;;;;6.40;76.68;97516.85;1733827;81;21012;-39
2021/11/27 01:09:43;;;;;;;10.88;8.83;;;;;;;6.41;76.77;97501.68;1756589;80;20928;-39
2021/11/27 01:12:12;;;;;;;11.65;8.53;;;;;;;6.47;76.69;97511.52;1753183;81;20977;-39
2021/11/27 01:14:39;;;;;;;11.55;8.68;;;;;;;6.49;76.68;97499.78;1726602;81;21084;-39
2021/11/27 01:17:07;;;;;;;12.20;9.58;;;;;;;6.48;76.69;97492.87;1742491;81;21025;-39
2021/11/27 01:19:36;;;;;;;10.85;8.70;;;;;;;6.50;76.65;97485.18;1738229;81;21000;-38
2021/11/27 01:22:13;;;;;;;11.93;9.23;;;;;;;6.54;76.62;97486.73;1752692;81;21208;-39
2021/11/27 01:27:31;;;;;;;11.50;9.25;;;;;;;6.53;76.95;97475.77;1775569;79;22674;-39
2021/11/27 01:29:58;;;;;;;10.58;9.08;;;;;;;6.47;77.25;97473.84;1746899;81;20969;-38
2021/11/27 01:32:26;;;;;;;10.65;8.93;;;;;;;6.52;77.28;97469.44;1739403;81;21115;-39
2021/11/27 01:34:53;;;;;;;12.85;9.65;;;;;;;6.54;77.24;97461.16;1754559;81;21004;-38
2021/11/27 01:37:20;;;;;;;16.10;9.68;;;;;;;6.54;77.21;97454.44;1752942;81;20964;-38
2021/11/27 01:39:48;;;;;;;13.03;9.05;;;;;;;6.54;77.33;97454.44;1756956;81;20937;-39
2021/11/27 01:42:15;;;;;;;13.55;9.65;;;;;;;6.62;77.25;97463.33;1757070;81;21468;-38
2021/11/27 01:44:45;;;;;;;11.15;9.00;;;;;;;6.69;77.10;97453.91;1756920;81;21140;-38
2021/11/27 01:47:12;;;;;;;14.15;9.10;;;;;;;6.68;77.21;97444.89;1735643;81;20969;-38
2021/11/27 01:49:40;;;;;;;10.98;9.10;;;;;;;6.67;77.29;97439.30;1730447;81;20961;-38
2021/11/27 01:52:08;;;;;;;11.88;8.45;;;;;;;6.67;77.41;97441.99;1756814;81;20968;-38
2021/11/27 01:54:35;;;;;;;10.25;8.40;;;;;;;6.70;77.44;97426.41;1694739;83;21474;-38
2021/11/27 01:57:06;;;;;;;11.45;8.73;;;;;;;6.71;77.45;97420.66;1723521;81;21402;-38
2021/11/27 01:59:36;;;;;;;10.32;7.78;;;;;;;6.71;77.49;97422.58;1714332;83;21545;-38
2021/11/27 02:02:07;;;;;;;8.95;7.33;;;;;;;6.71;77.74;97410.45;1721158;83;21078;-38
2021/11/27 02:04:35;;;;;;;9.15;7.62;;;;;;;6.75;77.72;97407.19;1716744;83;20972;-38
2021/11/27 02:07:02;;;;;;;9.50;7.08;;;;;;;6.75;77.69;97406.62;1694427;81;20992;-38
2021/11/27 02:09:32;;;;;;;9.40;7.40;;;;;;;6.75;77.84;97403.92;1700632;83;21113;-38
2021/11/27 02:12:01;;;;;;;8.58;7.00;;;;;;;6.81;77.75;97408.38;1723534;83;20952;-39
2021/11/27 02:14:32;;;;;;;7.67;6.40;;;;;;;6.87;77.78;97406.25;1677649;84;20991;-38
2021/11/27 02:17:10;;;;;;;8.35;6.10;;;;;;;6.87;77.81;97392.78;1695871;83;21027;-38
2021/11/27 02:19:39;;;;;;;6.67;5.72;;;;;;;6.87;77.85;97394.73;1698885;83;21058;-38
2021/11/27 02:22:06;;;;;;;7.05;5.55;;;;;;;6.91;77.88;97392.81;1723375;81;21044;-38
2021/11/27 02:24:35;;;;;;;7.40;6.00;;;;;;;6.97;77.90;97383.95;1707993;82;20974;-38
2021/11/27 02:27:03;;;;;;;6.97;5.42;;;;;;;7.01;77.88;97389.36;1703001;83;20992;-38
2021/11/27 02:29:32;;;;;;;6.70;5.10;;;;;;;7.01;77.96;97392.05;1675282;85;21036;-38
2021/11/27 02:32:00;;;;;;;7.65;4.67;;;;;;;7.02;77.99;97376.06;1683332;84;21040;-39
2021/11/27 02:34:28;;;;;;;6.53;5.67;;;;;;;7.08;77.97;97373.19;1689483;84;21144;-39
2021/11/27 02:36:59;;;;;;;6.92;5.12;;;;;;;7.13;77.92;97366.06;1690312;84;21582;-39
2021/11/27 02:39:26;;;;;;;6.20;4.60;;;;;;;7.12;78.02;97355.09;1690107;84;21084;-39
2021/11/27 02:41:53;;;;;;;4.95;4.30;;;;;;;7.16;77.97;97353.19;1676657;84;21041;-39
2021/11/27 02:44:29;;;;;;;6.12;4.53;;;;;;;7.22;77.94;97348.16;1690093;84;21096;-39
2021/11/27 02:46:57;;;;;;;5.53;4.80;;;;;;;7.26;77.93;97344.30;1690281;84;21143;-39
2021/11/27 02:49:24;;;;;;;4.25;3.83;;;;;;;7.27;78.01;97345.85;1666118;84;21066;-39
2021/11/27 02:51:51;;;;;;;4.30;3.37;;;;;;;7.28;78.08;97336.61;1667677;84;21088;-39
2021/11/27 02:54:18;;;;;;;4.30;3.50;;;;;;;7.34;77.93;97333.73;1682330;84;22005;-39
2021/11/27 02:56:47;;;;;;;4.08;3.55;;;;;;;7.38;77.86;97334.48;1685115;84;21103;-39
2021/11/27 02:59:21;;;;;;;5.10;3.83;;;;;;;7.39;77.96;97331.99;1660009;85;21108;-39
2021/11/27 03:01:50;;;;;;;4.20;2.95;;;;;;;7.39;78.14;97325.83;1679689;85;21032;-39
2021/11/27 03:04:19;;;;;;;3.27;2.70;;;;;;;7.38;78.37;97319.66;1687340;84;21084;-39
2021/11/27 03:06:46;;;;;;;5.90;2.98;;;;;;;7.46;78.21;97318.29;1679021;84;21036;-39
2021/11/27 03:09:17;;;;;;;3.72;3.00;;;;;;;7.52;78.23;97321.56;1670965;84;21079;-39
2021/11/27 03:11:49;;;;;;;3.25;2.87;;;;;;;7.55;78.31;97314.64;1666420;84;21578;-39
2021/11/27 03:14:21;;;;;;;2.70;2.45;;;;;;;7.56;78.34;97310.76;1669575;84;21096;-39
2021/11/27 03:16:48;;;;;;;3.20;2.30;;;;;;;7.60;78.28;97316.34;1686849;85;21025;-39
2021/11/27 03:19:15;;;;;;;2.95;2.45;;;;;;;7.70;78.12;97312.07;1686241;83;20970;-39
2021/11/27 03:21:44;;;;;;;2.62;2.27;;;;;;;7.76;78.01;97302.42;1686469;85;22123;-39
2021/11/27 03:24:11;;;;;;;2.80;2.33;;;;;;;7.77;78.05;97311.48;1672743;84;21155;-39
2021/11/27 03:26:39;;;;;;;2.40;1.95;;;;;;;7.78;78.14;97301.47;1681328;84;21481;-39
2021/11/27 03:29:07;;;;;;;3.17;2.10;;;;;;;7.77;78.26;97303.97;1710291;83;21902;-39
2021/11/27 03:31:36;;;;;;;2.50;2.10;;;;;;;7.83;78.29;97305.11;1705238;82;21805;-39
2021/11/27 03:34:04;;;;;;;3.65;2.25;;;;;;;7.89;78.28;97301.44;1708945;82;20992;-39
2021/11/27 03:36:31;;;;;;;2.55;2.25;;;;;;;7.86;78.39;97294.30;1696638;83;22345;-39
2021/11/27 03:39:00;;;;;;;2.20;2.00;;;;;;;7.86;78.59;97300.28;1691907;83;21008;-39
2021/11/27 03:41:28;;;;;;;2.10;1.90;;;;;;;7.90;78.58;97298.91;1693183;83;20988;-39
2021/11/27 03:43:55;;;;;;;2.10;1.90;;;;;;;8.01;78.60;97298.30;1703637;83;21084;-39
2021/11/27 03:46:22;;;;;;;2.42;2.08;;;;;;;8.06;78.56;97298.66;1720535;83;21076;-39
2021/11/27 03:48:51;;;;;;;2.17;1.92;;;;;;;8.09;78.56;97295.16;1704157;83;21916;-39
2021/11/27 03:51:25;;;;;;;2.52;1.70;;;;;;;8.10;78.71;97294.59;1664568;83;21518;-39
2021/11/27 03:53:54;;;;;;;2.15;1.80;;;;;;;8.12;78.60;97295.75;1712853;83;21496;-39
2021/11/27 03:56:29;;;;;;;1.85;1.67;;;;;;;8.16;78.69;97289.75;1710679;82;20976;-39
2021/11/27 03:59:03;;;;;;;2.55;2.35;;;;;;;8.20;78.71;97287.02;1698262;83;21027;-39
2021/11/27 04:01:30;;;;;;;2.25;2.02;;;;;;;8.20;78.85;97285.09;1695878;83;21135;-39
2021/11/27 04:03:57;;;;;;;2.62;2.40;;;;;;;8.23;78.89;97284.88;1718304;83;21044;-39
2021/11/27 04:06:25;;;;;;;2.87;2.25;;;;;;;8.29;78.86;97286.00;1673650;83;20932;-40
2021/11/27 04:08:54;;;;;;;3.25;2.70;;;;;;;8.33;78.77;97276.59;1711911;83;20940;-40
2021/11/27 04:11:22;;;;;;;3.75;2.90;;;;;;;8.35;78.83;97274.25;1691770;84;21004;-40
2021/11/27 04:13:52;;;;;;;5.10;3.12;;;;;;;8.39;78.79;97274.98;1698471;83;21008;-40
2021/11/27 04:16:19;;;;;;;4.47;3.50;;;;;;;8.46;78.69;97274.95;1711856;83;20992;-40
2021/11/27 04:18:46;;;;;;;5.28;3.67;;;;;;;8.51;78.64;97266.44;1708211;82;21000;-40
2021/11/27 04:21:14;;;;;;;5.35;3.92;;;;;;;8.51;78.61;97280.71;1707673;83;20976;-40
2021/11/27 04:23:42;;;;;;;6.22;3.87;;;;;;;8.51;78.64;97275.89;1692158;83;21091;-40
2021/11/27 04:26:11;;;;;;;5.33;4.30;;;;;;;8.53;78.72;97270.84;1701668;83;21144;-40
2021/11/27 04:28:40;;;;;;;5.50;4.90;;;;;;;8.58;78.65;97283.92;1710629;83;21467;-40
2021/11/27 04:31:08;;;;;;;4.80;4.10;;;;;;;8.58;78.77;97282.58;1722201;82;21555;-40
2021/11/27 04:33:36;;;;;;;4.55;3.92;;;;;;;8.57;78.74;97290.48;1745769;82;20994;-40
2021/11/27 04:36:04;;;;;;;4.62;4.17;;;;;;;8.59;78.79;97281.42;1747342;82;21096;-40
2021/11/27 04:38:33;;;;;;;5.55;4.72;;;;;;;8.66;78.70;97305.11;1746547;82;21128;-40
2021/11/27 04:41:02;;;;;;;7.70;5.95;;;;;;;8.68;78.66;97301.42;1749394;82;20906;-40
2021/11/27 04:43:31;;;;;;;;;;;;;;;8.68;78.62;97309.52;1745578;81;20906;-40
2021/11/27 04:45:59;;;;;;;8.08;5.17;;;;;;;8.69;78.60;97312.99;1724170;82;20210;-40
2021/11/27 04:48:26;;;;;;;6.58;4.85;;;;;;;8.69;78.67;97307.59;1731123;81;21038;-40
2021/11/27 04:50:53;;;;;;;6.97;5.65;;;;;;;8.75;78.57;97295.78;1737938;82;21098;-40
2021/11/27 04:53:20;;;;;;;8.83;6.00;;;;;;;8.75;78.56;97297.91;1751709;80;20985;-40
2021/11/27 04:55:47;;;;;;;7.70;6.00;;;;;;;8.75;78.53;97295.20;1751712;82;21017;-40
2021/11/27 04:58:16;;;;;;;8.35;5.60;;;;;;;8.77;78.50;97294.79;1734903;81;21025;-40
2021/11/27 05:00:52;;;;;;;8.38;6.08;;;;;;;8.82;78.22;97295.72;1742532;82;21033;-40
2021/11/27 05:03:21;;;;;;;8.35;6.62;;;;;;;8.84;78.02;97298.23;1720463;81;21130;-40
2021/11/27 05:05:49;;;;;;;8.25;6.58;;;;;;;8.81;78.10;97295.55;1730247;82;21021;-40
2021/11/27 05:08:16;;;;;;;8.45;6.28;;;;;;;8.76;78.05;97294.05;1749988;80;21444;-40
2021/11/27 05:10:45;;;;;;;7.15;6.05;;;;;;;8.76;77.95;97300.80;1695921;83;21015;-40
2021/11/27 05:13:12;;;;;;;7.33;6.47;;;;;;;8.51;77.69;97260.45;1686536;85;21518;-40
2021/11/27 05:15:40;;;;;;;8.30;7.20;;;;;;;8.84;77.42;97313.09;1703976;82;21148;-40
2021/11/27 05:18:09;;;;;;;10.95;5.28;;;;;;;8.80;77.46;97313.70;1687324;84;21102;-40
2021/11/27 05:20:56;;;;;;;8.95;6.90;;;;;;;8.73;77.45;97313.73;1668585;85;21552;-40
2021/11/27 05:23:26;;;;;;;6.90;5.20;;;;;;;8.69;77.48;97314.34;1699098;83;21529;-41
2021/11/27 05:25:54;;;;;;;10.13;7.00;;;;;;;8.73;77.30;97323.95;1685166;85;21092;-40
2021/11/27 05:28:39;;;;;;;10.72;7.47;;;;;;;8.74;77.24;97320.68;1759629;80;21146;-40
2021/11/27 05:31:26;;;;;;;9.40;7.70;;;;;;;8.71;77.23;97322.84;1788237;80;21566;-40
2021/11/27 05:36:39;;;;;;;10.20;7.28;;;;;;;8.65;77.33;97321.70;1770349;80;21077;-40
2021/11/27 05:39:06;;;;;;;10.08;8.23;;;;;;;8.72;77.10;97325.70;1756613;81;21003;-40
2021/11/27 05:41:33;;;;;;;9.33;8.00;;;;;;;8.74;76.95;97332.84;1756973;80;21115;-40
2021/11/27 05:44:00;;;;;;;12.70;8.80;;;;;;;8.72;76.92;97327.82;1746578;80;21503;-40
2021/11/27 05:46:28;;;;;;;12.10;8.35;;;;;;;8.68;76.94;97330.36;1746630;81;20937;-40
2021/11/27 05:48:55;;;;;;;10.35;7.92;;;;;;;8.66;76.94;97334.05;1756644;81;21011;-40
2021/11/27 05:51:31;;;;;;;9.70;8.65;;;;;;;8.69;76.89;97344.06;1753072;81;21021;-40
2021/11/27 05:53:58;;;;;;;12.07;9.18;;;;;;;8.74;76.96;97340.94;1750773;81;21318;-40
2021/11/27 05:56:26;;;;;;;14.33;9.80;;;;;;;8.75;76.96;97343.84;1756253;81;20965;-40
2021/11/27 05:58:56;;;;;;;12.40;9.65;;;;;;;8.73;76.99;97346.92;1777867;80;20996;-40
2021/11/27 06:01:24;;;;;;;15.35;9.30;;;;;;;8.74;76.90;97351.75;1788307;80;21053;-40
2021/11/27 06:03:51;;;;;;;11.90;10.08;;;;;;;8.79;76.77;97345.16;1781837;80;21000;-40
2021/11/27 06:06:19;;;;;;;13.80;10.78;;;;;;;8.79;76.69;97349.98;1735871;80;21189;-40
2021/11/27 06:08:47;;;;;;;13.13;10.75;;;;;;;8.76;76.82;97350.78;1751474;81;20973;-40
2021/11/27 06:11:14;;;;;;;14.23;11.53;;;;;;;8.71;76.98;97355.25;1741035;81;20957;-40
2021/11/27 06:13:41;;;;;;;16.37;11.22;;;;;;;8.72;77.08;97359.47;1745890;81;21002;-40
2021/11/27 06:16:08;;;;;;;15.93;12.30;;;;;;;8.73;77.04;97359.66;1752417;80;21304;-40
2021/11/27 06:18:36;;;;;;;18.73;14.53;;;;;;;8.76;77.08;97362.17;1769723;80;21533;-40
2021/11/27 06:21:03;;;;;;;17.67;13.45;;;;;;;8.74;77.15;97361.20;1759746;80;21510;-38
2021/11/27 06:23:30;;;;;;;16.20;12.58;;;;;;;8.72;77.29;97365.64;1736463;81;21791;-44
2021/11/27 06:25:57;;;;;;;15.03;11.73;;;;;;;8.73;77.31;97367.77;1742368;81;21473;-38
2021/11/27 06:28:24;;;;;;;16.70;12.82;;;;;;;8.78;77.26;97368.70;1746074;81;21487;-38
2021/11/27 06:30:51;;;;;;;18.00;14.87;;;;;;;8.82;77.22;97374.84;1741898;81;21162;-38
2021/11/27 06:33:18;;;;;;;18.15;14.70;;;;;;;8.83;77.32;97379.09;1729513;81;20970;-38
2021/11/27 06:35:45;;;;;;;20.90;14.65;;;;;;;8.83;77.39;97385.84;1743418;82;20926;-39
2021/11/27 06:38:14;;;;;;;18.10;13.60;;;;;;;8.83;77.49;97391.25;1743340;82;21069;-40
2021/11/27 06:40:41;;;;;;;23.22;14.65;;;;;;;8.88;77.36;97388.13;1743018;82;21021;-40
2021/11/27 06:43:14;;;;;;;21.87;16.00;;;;;;;8.93;77.33;97377.48;1714533;82;21017;-40
2021/11/27 06:45:53;;;;;;;21.40;15.78;;;;;;;8.90;77.45;97377.70;1715290;81;20921;-40
2021/11/27 06:48:20;;;;;;;20.08;14.85;;;;;;;8.88;77.54;97382.73;1713623;83;21555;-40
2021/11/27 06:50:47;;;;;;;20.25;15.08;;;;;;;8.88;77.59;97380.02;1737450;82;21034;-40
2021/11/27 06:53:14;;;;;;;20.25;15.28;;;;;;;8.93;77.49;97385.02;1740438;81;21065;-40
2021/11/27 06:55:42;;;;;;;23.67;16.17;;;;;;;8.99;77.33;97383.44;1741570;81;21113;-40
2021/11/27 06:58:11;;;;;;;20.88;16.05;;;;;;;9.00;77.33;97386.33;1731239;82;20968;-40
2021/11/27 07:00:39;;;;;;;;;;;;;;;8.99;77.36;97384.79;1729185;81;21472;-40
2021/11/27 07:03:23;;;;;;;18.35;14.75;;;;;;;9.02;77.29;97385.34;1679785;81;20169;-40
2021/11/27 07:06:08;;;;;;;22.22;16.32;;;;;;;9.02;77.25;97381.28;1717447;81;21064;-40
2021/11/27 07:08:36;;;;;;;22.50;16.85;;;;;;;9.08;77.14;97389.16;1724197;82;21137;-40
2021/11/27 07:11:06;;;;;;;25.13;17.57;;;;;;;9.12;77.02;97391.83;1742280;81;20918;-40
2021/11/27 07:13:33;;;;;;;22.52;16.25;;;;;;;9.12;76.93;97389.90;1731434;81;21516;-40
2021/11/27 07:16:00;;;;;;;19.50;15.95;;;;;;;9.14;76.86;97396.27;1714186;82;21349;-40
2021/11/27 07:18:28;;;;;;;24.60;17.35;;;;;;;9.20;76.65;97396.63;1729530;82;21029;-42
2021/11/27 07:20:56;;;;;;;24.45;18.12;;;;;;;9.23;76.53;97393.11;1728373;81;21148;-42
2021/11/27 07:23:23;;;;;;;24.80;17.90;;;;;;;9.21;76.50;97395.44;1672081;85;21088;-42
2021/11/27 07:25:50;;;;;;;23.45;16.93;;;;;;;9.17;76.52;97394.11;1735140;81;21066;-42
2021/11/27 07:28:20;;;;;;;21.85;17.20;;;;;;;9.17;76.46;97395.47;1750610;81;21472;-42
2021/11/27 07:30:49;;;;;;;26.48;18.92;;;;;;;9.24;76.35;97396.78;1721781;81;21065;-42
2021/11/27 07:33:17;;;;;;;25.05;18.87;;;;;;;9.26;76.19;97401.77;1708039;83;21918;-42
2021/11/27 07:35:45;;;;;;;24.92;18.87;;;;;;;9.25;76.19;97404.28;1729582;82;21005;-42
2021/11/27 07:38:12;;;;;;;24.47;17.77;;;;;;;9.26;76.12;97404.47;1713759;83;20942;-42
2021/11/27 07:40:39;;;;;;;26.50;20.00;;;;;;;9.30;75.81;97416.02;1720212;82;20939;-42
2021/11/27 07:43:07;;;;;;;27.13;19.90;;;;;;;9.34;75.72;97408.68;1727009;81;21029;-42
2021/11/27 07:45:35;;;;;;;26.40;19.77;;;;;;;9.37;75.79;97411.93;1737147;82;21115;-42
2021/11/27 07:48:24;;;;;;;24.32;17.95;;;;;;;9.36;75.44;97409.03;1730201;82;20975;-42
2021/11/27 07:51:09;;;;;;;24.15;18.65;;;;;;;9.37;75.41;97416.76;1723174;82;21033;-42
2021/11/27 07:53:41;;;;;;;27.80;20.10;;;;;;;9.39;75.34;97432.59;1713555;82;21029;-42
2021/11/27 07:56:07;;;;;;;26.95;19.80;;;;;;;9.39;75.32;97431.24;1720644;81;21073;-42
2021/11/27 07:58:35;;;;;;;27.55;19.92;;;;;;;9.38;75.40;97431.83;1727843;81;21559;-42
2021/11/27 08:01:02;;;;;;;25.25;19.00;;;;;;;9.41;75.21;97433.72;1719862;81;21043;-42
2021/11/27 08:03:29;;;;;;;25.82;18.98;;;;;;;9.46;75.00;97443.34;1742907;81;21575;-42
2021/11/27 08:05:56;;;;;;;27.80;19.87;;;;;;;9.50;74.82;97435.97;1722243;82;21038;-42
2021/11/27 08:08:23;;;;;;;29.60;20.20;;;;;;;9.54;74.73;97426.66;1714284;80;21030;-42
2021/11/27 08:10:50;;;;;;;26.15;19.40;;;;;;;9.59;74.65;97433.57;1737581;82;21888;-42
2021/11/27 08:13:17;;;;;;;25.37;19.30;;;;;;;9.64;74.56;97433.14;1737038;82;21552;-42
2021/11/27 08:15:44;;;;;;;27.32;19.27;;;;;;;9.75;74.51;97427.06;1719667;82;20966;-42
2021/11/27 08:18:13;;;;;;;28.27;20.15;;;;;;;9.85;73.73;97426.78;1715655;81;21552;-40
2021/11/27 08:20:41;;;;;;;24.15;19.00;;;;;;;9.89;73.58;97426.93;1713448;83;21559;-41
2021/11/27 08:23:09;;;;;;;23.00;17.80;;;;;;;9.92;73.46;97428.08;1723317;81;21348;-41
2021/11/27 08:25:36;;;;;;;25.82;17.95;;;;;;;9.92;72.86;97428.82;1722912;82;21158;-40
2021/11/27 08:28:05;;;;;;;22.93;16.90;;;;;;;10.01;72.78;97431.08;1737295;82;21497;-40
2021/11/27 08:30:32;;;;;;;24.77;20.00;;;;;;;10.18;72.46;97430.73;1742793;81;21045;-40
2021/11/27 08:33:00;;;;;;;29.23;22.55;;;;;;;10.31;72.22;97425.00;1741914;82;22932;-40
2021/11/27 08:35:27;;;;;;;29.30;20.48;;;;;;;10.11;71.39;97391.53;1734750;82;21128;-40
2021/11/27 08:37:55;;;;;;;26.52;21.07;;;;;;;10.53;71.21;97432.28;1748641;81;21020;-40
2021/11/27 08:40:22;;;;;;;24.85;18.95;;;;;;;10.63;70.45;97422.67;1741237;82;21872;-40
2021/11/27 08:42:50;;;;;;;22.27;17.15;;;;;;;10.73;70.43;97423.70;1740963;82;21047;-39
2021/11/27 08:45:17;;;;;;;24.72;18.70;;;;;;;10.77;69.69;97425.19;1731539;82;21630;-40
2021/11/27 08:47:45;;;;;;;24.23;18.82;;;;;;;10.78;69.14;97419.96;1742999;81;20974;-40
2021/11/27 08:50:13;;;;;;;18.48;14.47;;;;;;;10.73;68.33;97416.94;1740847;81;21073;-40
2021/11/27 08:52:40;;;;;;;22.25;15.70;;;;;;;10.67;68.43;97419.32;1741235;80;21199;-40
2021/11/27 08:55:07;;;;;;;24.20;19.77;;;;;;;10.72;68.52;97433.01;1743141;81;21487;-40
2021/11/27 08:57:34;;;;;;;20.82;15.48;;;;;;;10.77;68.58;97431.97;1731122;80;20998;-40
2021/11/27 09:00:01;;;;;;;25.88;18.60;;;;;;;10.85;68.03;97433.98;1731236;82;21163;-42
2021/11/27 09:02:28;;;;;;;15.08;12.68;;;;;;;10.94;67.78;97432.16;1738801;81;21283;-42
2021/11/27 09:04:55;;;;;;;18.52;15.10;;;;;;;11.06;66.99;97439.72;1716045;82;21065;-41
2021/11/27 09:07:24;;;;;;;18.42;14.85;;;;;;;11.16;67.04;97442.28;1727646;81;21002;-40
2021/11/27 09:09:51;;;;;;;26.42;22.98;;;;;;;11.22;66.76;97438.53;1727279;82;21069;-40
2021/11/27 09:12:19;;;;;;;45.45;37.85;;;;;;;11.16;65.96;97436.86;1727859;81;21068;-42
2021/11/27 09:14:50;;;;;;;46.28;29.23;;;;;;;11.09;66.27;97438.89;1741212;82;20969;-41
2021/11/27 09:17:19;;;;;;;60.35;31.05;;;;;;;10.99;65.92;97441.19;1743100;81;21271;-41
2021/11/27 09:19:48;;;;;;;26.15;15.50;;;;;;;10.92;66.21;97447.46;1743623;82;21030;-42
2021/11/27 09:22:15;;;;;;;17.73;12.67;;;;;;;10.99;66.33;97446.00;1742829;81;21069;-41
2021/11/27 09:24:42;;;;;;;27.32;17.73;;;;;;;11.14;66.01;97458.77;1742804;80;21091;-42
2021/11/27 09:27:10;;;;;;;25.30;15.83;;;;;;;11.24;64.92;97457.27;1751648;80;20923;-42
2021/11/27 09:29:39;;;;;;;15.53;11.95;;;;;;;11.31;64.73;97459.12;1729679;81;21021;-42
2021/11/27 09:32:08;;;;;;;35.67;20.67;;;;;;;11.38;63.97;97466.38;1721709;81;20957;-42
2021/11/27 09:34:35;;;;;;;31.42;19.95;;;;;;;11.44;63.81;97462.80;1728566;82;21554;-42
2021/11/27 09:37:02;;;;;;;18.80;12.65;;;;;;;11.49;63.61;97458.27;1713579;83;21496;-42
2021/11/27 09:39:30;;;;;;;36.88;22.58;;;;;;;11.58;63.05;97468.00;1730778;82;20961;-41
2021/11/27 09:41:57;;;;;;;21.45;13.95;;;;;;;11.71;63.27;97462.78;1734467;81;21069;-41
2021/11/27 09:44:24;;;;;;;53.50;22.62;;;;;;;11.90;62.57;97472.20;1723841;82;20938;-41
2021/11/27 09:46:51;;;;;;;36.80;24.27;;;;;;;12.08;62.04;97471.30;1726522;82;21100;-42
2021/11/27 09:49:24;;;;;;;45.80;28.52;;;;;;;12.20;61.68;97458.45;1713613;82;21940;-42
2021/11/27 09:51:52;;;;;;;39.35;21.10;;;;;;;12.36;61.05;97455.83;1731934;82;21009;-42
2021/11/27 09:54:19;;;;;;;45.35;23.30;;;;;;;12.53;60.89;97457.45;1735102;82;21021;-42
2021/11/27 09:56:48;;;;;;;57.88;32.67;;;;;;;12.67;60.11;97453.69;1734339;82;21798;-42
2021/11/27 09:59:16;;;;;;;36.10;23.15;;;;;;;12.79;59.15;97452.27;1722946;81;21013;-42
2021/11/27 10:01:46;;;;;;;43.63;29.15;;;;;;;12.84;59.36;97455.86;1679265;85;21119;-42
2021/11/27 10:04:15;;;;;;;36.30;27.73;;;;;;;12.85;58.26;97449.23;1713720;83;21001;-42
2021/11/27 10:06:45;;;;;;;32.42;23.90;;;;;;;12.80;58.49;97449.14;1675872;84;21100;-42
2021/11/27 10:09:22;;;;;;;43.50;32.45;;;;;;;12.73;59.00;97452.61;1742446;81;21026;-42
2021/11/27 10:11:51;;;;;;;22.32;18.55;;;;;;;12.71;58.78;97453.61;1730676;82;21536;-42
2021/11/27 10:14:21;;;;;;;48.63;37.38;;;;;;;12.72;59.15;97446.98;1730889;80;21251;-42
2021/11/27 10:17:06;;;;;;;21.70;17.82;;;;;;;12.70;59.20;97446.04;1743268;82;21029;-42
2021/11/27 10:19:48;;;;;;;55.38;45.95;;;;;;;12.72;59.15;97437.47;1721165;81;21503;-42
2021/11/27 10:22:24;;;;;;;16.00;14.30;;;;;;;12.64;58.92;97449.84;1724912;82;21073;-42
2021/11/27 10:24:51;;;;;;;12.33;10.75;;;;;;;12.62;59.40;97444.07;1733703;82;21026;-42
2021/11/27 10:27:28;;;;;;;14.75;11.55;;;;;;;12.67;59.07;97449.61;1718322;82;21134;-42
2021/11/27 10:30:04;;;;;;;10.03;8.80;;;;;;;12.74;59.51;97451.40;1714847;81;21021;-42
2021/11/27 10:32:38;;;;;;;10.45;9.35;;;;;;;12.84;58.94;97458.58;1734795;82;21087;-42
2021/11/27 10:35:20;;;;;;;28.65;21.15;;;;;;;12.89;58.84;97454.77;1743286;81;21017;-42
2021/11/27 10:37:55;;;;;;;11.00;9.30;;;;;;;12.98;59.07;97452.84;1743192;81;20983;-42
2021/11/27 10:40:25;;;;;;;26.50;21.73;;;;;;;13.07;58.34;97467.39;1735485;80;21109;-42
2021/11/27 10:42:55;;;;;;;14.83;11.57;;;;;;;13.16;58.46;97455.98;1735562;82;21055;-42
2021/11/27 10:45:29;;;;;;;15.48;12.45;;;;;;;13.19;58.21;97460.58;1737094;81;21949;-42
2021/11/27 10:48:12;;;;;;;17.17;14.58;;;;;;;13.21;58.22;97458.21;1728392;82;21015;-42
2021/11/27 10:50:50;;;;;;;11.68;9.75;;;;;;;13.20;57.83;97473.59;1739101;82;21030;-42
2021/11/27 10:53:21;;;;;;;12.68;11.25;;;;;;;13.10;58.08;97477.27;1735373;82;21066;-42
2021/11/27 10:55:48;;;;;;;10.28;9.13;;;;;;;12.95;58.25;97489.05;1738377;81;21540;-42
2021/11/27 10:58:17;;;;;;;12.15;9.05;;;;;;;12.76;58.47;97484.39;1710372;82;21483;-42
2021/11/27 11:00:47;;;;;;;9.95;8.53;;;;;;;12.58;58.71;97496.98;1729347;82;20970;-42
2021/11/27 11:03:32;;;;;;;10.90;8.40;;;;;;;12.41;59.17;97502.91;1743304;82;21029;-42
2021/11/27 11:06:20;;;;;;;9.38;7.85;;;;;;;12.26;59.29;97505.70;1713500;83;21781;-41
2021/11/27 11:08:49;;;;;;;11.60;8.33;;;;;;;12.16;59.83;97497.14;1708552;82;21038;-42
2021/11/27 11:11:27;;;;;;;9.85;7.28;;;;;;;12.17;60.43;97502.75;1713812;83;21096;-42
2021/11/27 11:14:00;;;;;;;12.40;8.68;;;;;;;12.27;60.57;97505.11;1713753;82;21094;-42
2021/11/27 11:16:33;;;;;;;11.22;8.48;;;;;;;12.32;60.17;97505.41;1678828;82;21083;-42
2021/11/27 11:19:20;;;;;;;67.75;37.20;;;;;;;12.28;60.21;97498.50;1713504;83;21132;-42
2021/11/27 11:22:11;;;;;;;19.45;13.90;;;;;;;12.26;60.57;97513.84;1720705;82;20928;-42
2021/11/27 11:24:40;;;;;;;11.38;9.68;;;;;;;12.35;60.28;97512.71;1741833;82;20946;-42
2021/11/27 11:27:09;;;;;;;11.25;8.75;;;;;;;12.49;60.17;97512.45;1730310;82;21039;-40
2021/11/27 11:29:46;;;;;;;9.68;8.33;;;;;;;12.63;60.29;97522.32;1678635;85;21025;-40
2021/11/27 11:32:23;;;;;;;9.45;8.43;;;;;;;12.77;59.44;97503.60;1690135;84;21127;-40
2021/11/27 11:34:53;;;;;;;9.95;8.10;;;;;;;12.90;59.21;97514.02;1741459;82;21550;-40
2021/11/27 11:37:20;;;;;;;10.28;8.68;;;;;;;12.98;58.75;97522.20;1741372;82;20967;-40
2021/11/27 11:39:48;;;;;;;9.35;8.03;;;;;;;13.04;58.93;97525.97;1741617;82;21498;-41
2021/11/27 11:42:15;;;;;;;11.78;8.23;;;;;;;13.13;58.06;97528.91;1738364;82;21034;-41
2021/11/27 11:44:42;;;;;;;16.77;12.95;;;;;;;13.23;57.92;97530.65;1713754;82;21131;-41
2021/11/27 11:47:11;;;;;;;17.95;12.75;;;;;;;13.32;57.91;97528.12;1713198;83;20954;-41